createdAt,value
2024-04-16T00:20:03.148Z,2.17
2024-04-16T00:22:30.188Z,3.58
2024-04-16T00:24:57.094Z,2.78
2024-04-16T00:27:23.814Z,3.20
2024-04-16T00:29:50.548Z,2.90
2024-04-16T00:32:17.538Z,4.10
2024-04-16T00:34:44.439Z,3.20
2024-04-16T00:37:13.403Z,3.40
2024-04-16T00:39:40.286Z,3.05
2024-04-16T00:42:07.063Z,2.85
2024-04-16T00:44:33.938Z,2.78
2024-04-16T00:47:02.685Z,3.30
2024-04-16T00:49:34.394Z,2.80
2024-04-16T00:52:07.857Z,3.20
2024-04-16T00:54:36.126Z,2.80
2024-04-16T00:57:04.709Z,3.17
2024-04-16T00:59:33.224Z,2.70
2024-04-16T01:02:01.791Z,1.88
2024-04-16T01:04:30.745Z,3.17
2024-04-16T01:06:59.052Z,2.80
2024-04-16T01:09:26.551Z,2.60
2024-04-16T01:12:00.714Z,2.42
2024-04-16T01:14:29.566Z,2.60
2024-04-16T01:16:57.895Z,3.00
2024-04-16T01:19:26.737Z,2.97
2024-04-16T01:21:53.775Z,2.08
2024-04-16T01:24:22.638Z,2.67
2024-04-16T01:26:49.568Z,1.90
2024-04-16T01:29:17.120Z,3.05
2024-04-16T01:31:45.052Z,2.33
2024-04-16T01:34:15.451Z,2.25
2024-04-16T01:36:43.475Z,2.72
2024-04-16T01:39:10.855Z,1.80
2024-04-16T01:41:38.626Z,2.65
2024-04-16T01:44:05.739Z,3.50
2024-04-16T01:46:40.644Z,2.67
2024-04-16T01:49:09.494Z,2.70
2024-04-16T01:51:36.830Z,2.70
2024-04-16T01:54:05.843Z,2.42
2024-04-16T01:56:35.230Z,3.38
2024-04-16T01:59:03.763Z,2.17
2024-04-16T02:01:32.754Z,2.17
2024-04-16T02:04:01.843Z,1.90
2024-04-16T02:06:31.925Z,2.70
2024-04-16T02:09:00.325Z,1.90
2024-04-16T02:11:30.935Z,2.22
2024-04-16T02:16:40.390Z,2.08
2024-04-16T02:19:09.700Z,1.98
2024-04-16T02:21:37.328Z,2.00
2024-04-16T02:24:11.450Z,1.98
2024-04-16T02:26:40.414Z,1.98
2024-04-16T02:29:08.911Z,2.08
2024-04-16T02:31:37.712Z,2.58
2024-04-16T02:34:05.837Z,1.88
2024-04-16T02:36:34.007Z,1.70
2024-04-16T02:39:02.643Z,2.35
2024-04-16T02:41:33.313Z,2.00
2024-04-16T02:44:00.762Z,2.47
2024-04-16T02:46:30.647Z,1.45
2024-04-16T02:48:58.896Z,1.90
2024-04-16T02:51:27.940Z,2.00
2024-04-16T02:53:56.833Z,2.50
2024-04-16T02:56:24.637Z,2.00
2024-04-16T02:58:51.926Z,2.53
2024-04-16T03:01:20.004Z,1.25
2024-04-16T03:03:47.079Z,1.55
2024-04-16T03:06:15.317Z,2.53
2024-04-16T03:08:45.007Z,3.90
2024-04-16T03:11:13.345Z,2.15
2024-04-16T03:13:42.702Z,2.70
2024-04-16T03:16:09.873Z,1.92
2024-04-16T03:18:47.048Z,1.42
2024-04-16T03:21:15.975Z,1.88
2024-04-16T03:23:43.863Z,2.53
2024-04-16T03:26:12.629Z,2.28
2024-04-16T03:28:40.804Z,2.33
2024-04-16T03:31:07.665Z,2.00
2024-04-16T03:33:34.772Z,2.60
2024-04-16T03:36:02.725Z,2.42
2024-04-16T03:38:34.985Z,2.30
2024-04-16T03:41:02.818Z,2.25
2024-04-16T03:43:34.111Z,2.85
2024-04-16T03:46:06.424Z,2.40
2024-04-16T03:48:34.674Z,3.05
2024-04-16T03:51:06.337Z,2.63
2024-04-16T03:53:36.903Z,2.78
2024-04-16T03:56:05.544Z,3.05
2024-04-16T03:58:35.802Z,3.03
2024-04-16T04:01:12.372Z,2.30
2024-04-16T04:04:06.628Z,2.80
2024-04-16T04:06:34.325Z,3.92
2024-04-16T04:09:02.622Z,3.05
2024-04-16T04:14:23.736Z,3.40
2024-04-16T04:16:51.655Z,4.03
2024-04-16T04:19:20.659Z,3.90
2024-04-16T04:21:48.781Z,3.67
2024-04-16T04:24:27.554Z,3.80
2024-04-16T04:27:01.757Z,4.95
2024-04-16T04:29:28.669Z,4.28
2024-04-16T04:32:06.338Z,4.18
2024-04-16T04:34:33.958Z,5.95
2024-04-16T04:37:02.865Z,5.50
2024-04-16T04:39:29.771Z,5.45
2024-04-16T04:41:57.570Z,3.72
2024-04-16T04:44:24.628Z,4.93
2024-04-16T04:46:51.640Z,3.50
2024-04-16T04:52:02.072Z,3.85
2024-04-16T04:54:29.592Z,3.65
2024-04-16T04:56:56.707Z,3.17
2024-04-16T04:59:24.669Z,4.15
2024-04-16T05:01:52.569Z,3.05
2024-04-16T05:04:20.708Z,3.50
2024-04-16T05:09:30.683Z,3.33
2024-04-16T05:12:01.151Z,4.22
2024-04-16T05:14:29.711Z,4.50
2024-04-16T05:16:58.366Z,4.97
2024-04-16T05:19:25.698Z,4.72
2024-04-16T05:21:56.139Z,5.03
2024-04-16T05:24:23.133Z,5.07
2024-04-16T05:26:51.707Z,5.90
2024-04-16T05:29:19.632Z,5.75
2024-04-16T05:31:59.303Z,5.88
2024-04-16T05:34:26.952Z,6.03
2024-04-16T05:36:54.874Z,6.35
2024-04-16T05:39:21.924Z,5.93
2024-04-16T05:41:50.230Z,7.13
2024-04-16T05:44:19.719Z,7.40
2024-04-16T05:46:50.188Z,7.60
2024-04-16T05:49:18.776Z,8.27
2024-04-16T05:51:58.595Z,7.38
2024-04-16T05:54:28.476Z,4.97
2024-04-16T05:56:55.842Z,6.90
2024-04-16T05:59:26.409Z,3.75
2024-04-16T06:01:56.434Z,4.95
2024-04-16T06:04:24.623Z,4.95
2024-04-16T06:06:52.025Z,5.25
2024-04-16T06:09:21.879Z,4.55
2024-04-16T06:11:49.764Z,4.35
2024-04-16T06:14:18.870Z,3.70
2024-04-16T06:16:47.190Z,5.53
2024-04-16T06:19:15.835Z,4.28
2024-04-16T06:21:46.907Z,4.38
2024-04-16T06:24:13.779Z,3.72
2024-04-16T06:26:41.775Z,4.15
2024-04-16T06:29:09.956Z,4.72
2024-04-16T06:31:40.274Z,4.32
2024-04-16T06:34:08.047Z,5.03
2024-04-16T06:36:36.714Z,4.28
2024-04-16T06:39:04.384Z,3.90
2024-04-16T06:41:34.275Z,4.85
2024-04-16T06:44:02.212Z,4.45
2024-04-16T06:46:31.038Z,4.40
2024-04-16T06:49:08.532Z,3.92
2024-04-16T06:51:41.676Z,4.03
2024-04-16T06:54:10.995Z,3.75
2024-04-16T06:56:48.982Z,3.45
2024-04-16T06:59:20.083Z,3.40
2024-04-16T07:01:49.043Z,3.78
2024-04-16T07:04:17.515Z,3.83
2024-04-16T07:06:45.879Z,3.38
2024-04-16T07:09:16.733Z,3.22
2024-04-16T07:11:46.360Z,2.15
2024-04-16T07:14:14.374Z,2.67
2024-04-16T07:16:43.493Z,3.33
2024-04-16T07:19:13.241Z,2.77
2024-04-16T07:21:42.721Z,2.90
2024-04-16T07:24:09.889Z,3.05
2024-04-16T07:26:37.930Z,3.13
2024-04-16T07:29:06.509Z,2.95
2024-04-16T07:31:41.580Z,3.22
2024-04-16T07:34:12.763Z,2.67
2024-04-16T07:36:40.971Z,2.22
2024-04-16T07:39:09.943Z,2.13
2024-04-16T07:41:37.782Z,1.90
2024-04-16T07:44:04.915Z,2.13
2024-04-16T07:46:36.104Z,2.20
2024-04-16T07:49:05.023Z,2.40
2024-04-16T07:51:32.785Z,2.67
2024-04-16T07:54:00.942Z,2.97
2024-04-16T07:56:30.964Z,3.15
2024-04-16T07:58:59.985Z,3.50
2024-04-16T08:01:30.167Z,3.78
2024-04-16T08:03:59.978Z,5.53
2024-04-16T08:06:28.182Z,5.35
2024-04-16T08:08:57.721Z,5.85
2024-04-16T08:11:25.813Z,5.68
2024-04-16T08:13:54.899Z,5.70
2024-04-16T08:16:22.555Z,6.95
2024-04-16T08:18:51.838Z,6.50
2024-04-16T08:21:19.019Z,6.05
2024-04-16T08:23:47.102Z,6.57
2024-04-16T08:26:16.542Z,6.65
2024-04-16T08:28:47.212Z,6.13
2024-04-16T08:31:14.096Z,6.90
2024-04-16T08:33:43.375Z,8.15
2024-04-16T08:36:16.449Z,8.52
2024-04-16T08:38:43.976Z,9.38
2024-04-16T08:41:12.554Z,8.93
2024-04-16T08:43:41.819Z,7.57
2024-04-16T08:46:11.927Z,7.00
2024-04-16T08:51:09.908Z,7.00
2024-04-16T08:53:41.788Z,6.03
2024-04-16T08:56:13.108Z,4.55
2024-04-16T08:58:42.599Z,4.30
2024-04-16T09:01:11.694Z,5.17
2024-04-16T09:03:40.535Z,5.50
2024-04-16T09:06:07.830Z,3.65
2024-04-16T09:08:39.416Z,4.95
2024-04-16T09:11:07.318Z,5.32
2024-04-16T09:13:45.491Z,4.40
2024-04-16T09:16:14.556Z,3.92
2024-04-16T09:18:41.704Z,2.63
2024-04-16T09:21:11.294Z,2.15
2024-04-16T09:23:57.091Z,2.28
2024-04-16T09:26:25.010Z,2.58
2024-04-16T09:28:53.868Z,2.00
2024-04-16T09:31:21.152Z,2.40
2024-04-16T09:33:49.611Z,2.15
2024-04-16T09:36:17.972Z,3.63
2024-04-16T09:38:50.209Z,4.00
2024-04-16T09:41:18.889Z,2.58
2024-04-16T09:43:49.695Z,3.20
2024-04-16T09:46:18.936Z,3.28
2024-04-16T09:48:51.323Z,2.25
2024-04-16T09:51:24.542Z,2.20
2024-04-16T09:53:55.790Z,2.90
2024-04-16T09:56:25.783Z,2.30
2024-04-16T09:58:56.670Z,3.17
2024-04-16T10:01:25.886Z,2.85
2024-04-16T10:03:55.936Z,2.47
2024-04-16T10:06:24.255Z,2.13
2024-04-16T10:08:55.387Z,2.17
2024-04-16T10:11:31.202Z,2.30
2024-04-16T10:14:01.937Z,2.53
2024-04-16T10:16:31.409Z,2.03
2024-04-16T10:19:00.727Z,2.00
2024-04-16T10:21:31.672Z,1.70
2024-04-16T10:24:09.921Z,2.28
2024-04-16T10:26:44.980Z,1.10
2024-04-16T10:29:19.755Z,0.88
2024-04-16T10:32:00.248Z,1.02
2024-04-16T10:34:29.974Z,1.65
2024-04-16T10:37:07.542Z,1.17
2024-04-16T10:39:38.155Z,1.15
2024-04-16T10:42:09.188Z,1.05
2024-04-16T10:44:38.609Z,0.77
2024-04-16T10:47:08.154Z,0.80
2024-04-16T10:49:36.488Z,0.75
2024-04-16T10:52:25.699Z,0.98
2024-04-16T10:54:55.608Z,0.80
2024-04-16T10:57:24.988Z,0.88
2024-04-16T11:00:09.068Z,0.93
2024-04-16T11:02:53.696Z,0.65
2024-04-16T11:05:26.045Z,0.90
2024-04-16T11:08:00.616Z,0.85
2024-04-16T11:10:30.223Z,0.80
2024-04-16T11:13:01.424Z,1.70
2024-04-16T11:15:35.937Z,0.77
2024-04-16T11:18:04.511Z,0.90
2024-04-16T11:20:32.107Z,0.95
2024-04-16T11:23:06.792Z,0.65
2024-04-16T11:25:35.533Z,0.57
2024-04-16T11:28:04.022Z,0.63
2024-04-16T11:30:33.871Z,0.82
2024-04-16T11:33:04.265Z,1.85
2024-04-16T11:35:48.557Z,0.85
2024-04-16T11:38:25.525Z,0.80
2024-04-16T11:41:04.574Z,1.08
2024-04-16T11:43:37.537Z,0.55
2024-04-16T11:46:09.545Z,0.40
2024-04-16T11:48:42.001Z,0.57
2024-04-16T11:51:09.390Z,0.60
2024-04-16T11:53:39.855Z,1.10
2024-04-16T11:58:51.059Z,0.47
2024-04-16T12:01:20.569Z,0.50
2024-04-16T12:03:50.709Z,0.57
2024-04-16T12:06:18.046Z,0.65
2024-04-16T12:08:46.870Z,0.65
2024-04-16T12:11:15.884Z,0.50
2024-04-16T12:13:47.218Z,0.77
2024-04-16T12:16:17.435Z,0.98
2024-04-16T12:18:45.541Z,0.60
2024-04-16T12:21:14.664Z,0.70
2024-04-16T12:23:43.612Z,0.88
2024-04-16T12:28:43.265Z,0.60
2024-04-16T12:31:13.662Z,0.60
2024-04-16T12:33:45.321Z,0.77
2024-04-16T12:36:18.739Z,1.02
2024-04-16T12:38:46.999Z,0.63
2024-04-16T12:41:27.682Z,0.40
2024-04-16T12:43:54.989Z,0.70
2024-04-16T12:46:23.606Z,0.32
2024-04-16T12:48:52.916Z,0.70
2024-04-16T12:51:19.777Z,0.68
2024-04-16T12:53:48.105Z,1.05
2024-04-16T12:56:17.583Z,0.70
2024-04-16T12:58:47.742Z,0.47
2024-04-16T13:01:15.265Z,1.77
2024-04-16T13:03:44.606Z,0.60
2024-04-16T13:06:16.833Z,0.73
2024-04-16T13:08:44.099Z,0.80
2024-04-16T13:11:13.481Z,0.77
2024-04-16T13:13:44.859Z,0.80
2024-04-16T13:16:16.376Z,0.65
2024-04-16T13:18:48.191Z,0.60
2024-04-16T13:21:44.076Z,0.30
2024-04-16T13:24:15.302Z,1.00
2024-04-16T13:26:46.569Z,0.57
2024-04-16T13:29:13.904Z,0.70
2024-04-16T13:31:42.110Z,0.95
2024-04-16T13:34:10.101Z,0.50
2024-04-16T13:36:37.958Z,0.60
2024-04-16T13:39:04.920Z,0.60
2024-04-16T13:41:32.426Z,0.40
2024-04-16T13:43:59.818Z,0.60
2024-04-16T13:46:29.238Z,0.52
2024-04-16T13:49:00.066Z,0.70
2024-04-16T13:51:28.175Z,0.77
2024-04-16T13:53:56.804Z,0.40
2024-04-16T13:56:24.068Z,0.70
2024-04-16T13:58:55.127Z,0.60
2024-04-16T14:01:24.640Z,0.52
2024-04-16T14:03:55.683Z,0.40
2024-04-16T14:06:26.451Z,0.50
2024-04-16T14:11:26.379Z,0.60
2024-04-16T14:13:53.906Z,0.45
2024-04-16T14:16:22.859Z,0.52
2024-04-16T14:18:53.820Z,0.60
2024-04-16T14:21:25.768Z,0.82
2024-04-16T14:23:55.322Z,0.60
2024-04-16T14:26:27.207Z,0.73
2024-04-16T14:28:54.964Z,0.80
2024-04-16T14:31:29.646Z,0.80
2024-04-16T14:33:58.808Z,1.10
2024-04-16T14:36:35.911Z,1.13
2024-04-16T14:39:04.085Z,1.85
2024-04-16T14:41:33.320Z,0.73
2024-04-16T14:44:01.916Z,0.88
2024-04-16T14:46:30.916Z,0.43
2024-04-16T14:49:00.994Z,0.97
2024-04-16T14:51:30.614Z,0.50
2024-04-16T14:53:59.443Z,0.70
2024-04-16T14:56:29.712Z,0.60
2024-04-16T14:58:59.352Z,0.77
2024-04-16T15:01:27.048Z,0.90
2024-04-16T15:03:56.137Z,0.70
2024-04-16T15:06:25.621Z,0.50
2024-04-16T15:13:55.518Z,0.60
2024-04-16T15:16:23.294Z,0.85
2024-04-16T15:18:53.498Z,0.60
2024-04-16T15:21:22.779Z,0.73
2024-04-16T15:23:52.801Z,0.60
2024-04-16T15:26:21.665Z,0.40
2024-04-16T15:28:50.503Z,0.60
2024-04-16T15:31:20.683Z,1.02
2024-04-16T15:33:49.450Z,0.50
2024-04-16T15:36:16.688Z,0.90
2024-04-16T15:38:50.006Z,0.57
2024-04-16T15:41:18.103Z,0.50
2024-04-16T15:43:47.706Z,0.57
2024-04-16T15:46:18.499Z,0.52
2024-04-16T15:48:47.918Z,0.57
2024-04-16T15:51:18.628Z,0.82
2024-04-16T15:53:45.754Z,0.82
2024-04-16T15:56:14.107Z,0.60
2024-04-16T15:58:46.341Z,0.65
2024-04-16T16:01:16.582Z,0.65
2024-04-16T16:03:45.736Z,0.47
2024-04-16T16:06:14.655Z,0.50
2024-04-16T16:08:44.171Z,0.53
2024-04-16T16:11:12.071Z,0.80
2024-04-16T16:13:42.524Z,0.60
2024-04-16T16:16:13.374Z,0.65
2024-04-16T16:18:42.325Z,0.60
2024-04-16T16:21:11.489Z,0.60
2024-04-16T16:23:39.750Z,0.85
2024-04-16T16:26:10.304Z,0.60
2024-04-16T16:28:41.381Z,0.70
2024-04-16T16:31:10.025Z,3.08
2024-04-16T16:33:38.863Z,1.35
2024-04-16T16:36:13.937Z,3.45
2024-04-16T16:38:41.690Z,14.43
2024-04-16T16:41:09.023Z,9.43
2024-04-16T16:43:35.886Z,7.93
2024-04-16T16:46:05.535Z,16.38
2024-04-16T16:48:34.872Z,1.42
2024-04-16T16:51:02.659Z,1.20
2024-04-16T16:53:32.416Z,0.95
2024-04-16T16:56:02.410Z,0.73
2024-04-16T16:58:40.509Z,0.70
2024-04-16T17:01:09.480Z,0.55
2024-04-16T17:03:41.364Z,0.80
2024-04-16T17:06:10.883Z,0.93
2024-04-16T17:08:38.510Z,0.90
2024-04-16T17:11:08.245Z,0.82
2024-04-16T17:13:37.832Z,0.50
2024-04-16T17:16:08.560Z,1.17
2024-04-16T17:18:42.739Z,1.23
2024-04-16T17:21:11.481Z,1.55
2024-04-16T17:23:40.383Z,1.35
2024-04-16T17:26:08.639Z,1.10
2024-04-16T17:28:39.595Z,1.20
2024-04-16T17:31:09.160Z,1.30
2024-04-16T17:33:40.714Z,1.40
2024-04-16T17:36:09.083Z,1.05
2024-04-16T17:38:48.541Z,1.33
2024-04-16T17:41:17.638Z,1.20
2024-04-16T17:43:45.953Z,1.40
2024-04-16T17:46:14.827Z,1.35
2024-04-16T17:48:41.795Z,1.15
2024-04-16T17:51:08.700Z,1.30
2024-04-16T17:53:35.745Z,1.10
2024-04-16T17:56:13.596Z,1.33
2024-04-16T17:59:03.757Z,1.67
2024-04-16T18:01:33.610Z,1.27
2024-04-16T18:04:03.484Z,1.00
2024-04-16T18:06:31.133Z,1.48
2024-04-16T18:08:59.460Z,0.93
2024-04-16T18:11:27.931Z,0.90
2024-04-16T18:13:56.387Z,1.08
2024-04-16T18:16:26.262Z,1.20
2024-04-16T18:18:55.314Z,1.00
2024-04-16T18:21:23.120Z,1.30
2024-04-16T18:23:51.328Z,1.50
2024-04-16T18:26:18.355Z,1.30
2024-04-16T18:28:45.437Z,1.65
2024-04-16T18:31:12.325Z,1.38
2024-04-16T18:33:39.405Z,1.60
2024-04-16T18:36:06.694Z,1.30
2024-04-16T18:38:37.696Z,1.75
2024-04-16T18:41:07.237Z,1.70
2024-04-16T18:43:36.217Z,1.80
2024-04-16T18:46:03.696Z,2.03
2024-04-16T18:48:31.217Z,1.65
2024-04-16T18:50:59.032Z,1.60
2024-04-16T18:53:30.259Z,1.67
2024-04-16T18:55:57.296Z,1.83
2024-04-16T18:58:24.706Z,1.55
2024-04-16T19:00:52.873Z,1.90
2024-04-16T19:03:20.640Z,1.30
2024-04-16T19:05:51.405Z,2.03
2024-04-16T19:08:22.161Z,1.67
2024-04-16T19:10:50.586Z,1.60
2024-04-16T19:13:17.512Z,1.73
2024-04-16T19:15:45.700Z,2.30
2024-04-16T19:18:12.604Z,1.60
2024-04-16T19:20:40.703Z,1.50
2024-04-16T19:23:07.604Z,1.80
2024-04-16T19:25:34.459Z,1.90
2024-04-16T19:28:01.315Z,1.80
2024-04-16T19:30:28.291Z,1.67
2024-04-16T19:32:56.218Z,2.42
2024-04-16T19:35:24.133Z,2.22
2024-04-16T19:37:52.052Z,1.98
2024-04-16T19:40:21.410Z,2.20
2024-04-16T19:42:50.340Z,1.80
2024-04-16T19:45:20.574Z,1.63
2024-04-16T19:47:48.223Z,2.30
2024-04-16T19:50:16.950Z,1.65
2024-04-16T19:52:46.740Z,2.22
2024-04-16T19:55:14.273Z,2.10
2024-04-16T19:57:43.641Z,2.53
2024-04-16T20:00:13.484Z,2.90
2024-04-16T20:02:42.565Z,2.33
2024-04-16T20:05:10.284Z,2.65
2024-04-16T20:07:42.780Z,2.72
2024-04-16T20:10:10.440Z,2.80
2024-04-16T20:12:39.111Z,2.97
2024-04-16T20:15:09.471Z,2.60
2024-04-16T20:17:37.323Z,3.22
2024-04-16T20:20:09.115Z,2.83
2024-04-16T20:22:39.341Z,2.83
2024-04-16T20:25:19.058Z,2.97
2024-04-16T20:27:47.629Z,3.00
2024-04-16T20:30:16.165Z,2.75
2024-04-16T20:32:43.282Z,3.28
2024-04-16T20:35:13.799Z,2.92
2024-04-16T20:40:08.880Z,3.65
2024-04-16T20:42:36.465Z,3.88
2024-04-16T20:45:04.857Z,3.40
2024-04-16T20:47:32.832Z,3.05
2024-04-16T20:50:00.181Z,3.88
2024-04-16T20:52:29.488Z,3.08
2024-04-16T20:54:57.131Z,3.67
2024-04-16T20:57:24.371Z,3.17
2024-04-16T20:59:51.217Z,3.58
2024-04-16T21:02:18.118Z,4.25
2024-04-16T21:04:47.734Z,3.88
2024-04-16T21:07:15.152Z,3.80
2024-04-16T21:09:42.119Z,3.20
2024-04-16T21:12:09.523Z,3.60
2024-04-16T21:14:39.677Z,5.20
2024-04-16T21:17:07.164Z,3.92
2024-04-16T21:19:35.643Z,3.28
2024-04-16T21:22:02.548Z,4.13
2024-04-16T21:24:29.415Z,3.60
2024-04-16T21:26:56.251Z,3.63
2024-04-16T21:29:23.132Z,3.00
2024-04-16T21:31:49.990Z,3.22
2024-04-16T21:34:16.916Z,4.13
2024-04-16T21:36:43.844Z,4.90
2024-04-16T21:39:10.726Z,3.65
2024-04-16T21:41:37.694Z,4.07
2024-04-16T21:44:05.035Z,3.88
2024-04-16T21:46:32.060Z,3.42
2024-04-16T21:48:59.709Z,3.47
2024-04-16T21:51:26.728Z,4.20
2024-04-16T21:53:56.379Z,26.50
2024-04-16T21:56:48.771Z,5.25
2024-04-16T21:59:15.620Z,23.40
2024-04-16T22:01:42.561Z,8.48
2024-04-16T22:04:10.362Z,9.15
2024-04-16T22:06:38.104Z,17.30
2024-04-16T22:09:04.964Z,4.38
2024-04-16T22:11:31.765Z,4.20
2024-04-16T22:13:58.705Z,4.00
2024-04-16T22:16:25.670Z,4.10
2024-04-16T22:18:52.669Z,3.78
2024-04-16T22:21:19.597Z,3.35
2024-04-16T22:23:46.382Z,4.28
2024-04-16T22:26:13.240Z,4.15
2024-04-16T22:28:40.039Z,2.95
2024-04-16T22:31:06.991Z,5.18
2024-04-16T22:33:34.227Z,3.22
2024-04-16T22:36:01.132Z,3.28
2024-04-16T22:38:28.206Z,3.10
2024-04-16T22:40:57.329Z,3.55
2024-04-16T22:43:25.237Z,4.28
2024-04-16T22:45:54.633Z,3.28
2024-04-16T22:48:22.401Z,3.08
2024-04-16T22:50:51.556Z,3.80
2024-04-16T22:53:20.373Z,3.83
2024-04-16T22:56:09.212Z,2.75
2024-04-16T22:58:45.307Z,2.65
2024-04-16T23:01:12.847Z,3.53
2024-04-16T23:03:42.345Z,3.17
2024-04-16T23:06:10.802Z,2.63
2024-04-16T23:08:40.945Z,3.22
2024-04-16T23:11:10.744Z,3.20
2024-04-16T23:13:40.241Z,3.10
2024-04-16T23:16:08.419Z,3.13
2024-04-16T23:18:36.240Z,3.15
2024-04-16T23:21:03.132Z,4.38
2024-04-16T23:23:30.233Z,4.97
2024-04-16T23:25:57.461Z,4.75
2024-04-16T23:28:27.829Z,5.63
2024-04-16T23:30:57.204Z,3.28
2024-04-16T23:33:24.193Z,4.07
2024-04-16T23:35:51.551Z,4.25
2024-04-16T23:38:20.724Z,3.13
2024-04-16T23:40:56.141Z,3.42
2024-04-16T23:43:26.817Z,3.28
2024-04-16T23:48:36.047Z,3.85
2024-04-16T23:51:08.894Z,2.72
2024-04-16T23:53:36.203Z,3.50
2024-04-16T23:56:03.370Z,3.22
2024-04-16T23:58:33.869Z,2.83
